createdAt,value
2023-03-10T00:01:25.619Z,90865.66
2023-03-10T00:03:52.826Z,90864.31
2023-03-10T00:06:20.869Z,90871.13
2023-03-10T00:08:47.633Z,90875.81
2023-03-10T00:11:14.570Z,90871.66
2023-03-10T00:13:41.258Z,90870.44
2023-03-10T00:16:08.239Z,90876.63
2023-03-10T00:18:34.986Z,90877.19
2023-03-10T00:21:01.708Z,90877.63
2023-03-10T00:23:28.350Z,90868.09
2023-03-10T00:25:59.505Z,90869.28
2023-03-10T00:28:26.478Z,90869.16
2023-03-10T00:31:00.650Z,90872.53
2023-03-10T00:33:27.273Z,90872.06
2023-03-10T00:36:13.183Z,90860.22
2023-03-10T00:38:39.943Z,90853.56
2023-03-10T00:41:12.234Z,90854.13
2023-03-10T00:43:38.897Z,90861.63
2023-03-10T00:46:05.706Z,90855.91
2023-03-10T00:48:32.587Z,90857.44
2023-03-10T00:50:59.312Z,90856.94
2023-03-10T00:53:26.138Z,90854.72
2023-03-10T00:56:05.541Z,90866.50
2023-03-10T00:58:32.324Z,90848.78
2023-03-10T01:00:59.279Z,90859.41
2023-03-10T01:03:26.082Z,90862.22
2023-03-10T01:05:52.718Z,90851.53
2023-03-10T01:08:19.355Z,90850.19
2023-03-10T01:10:46.367Z,90845.31
2023-03-10T01:13:13.404Z,90844.78
2023-03-10T01:15:40.420Z,90840.06
2023-03-10T01:18:07.675Z,90842.94
2023-03-10T01:20:34.750Z,90838.94
2023-03-10T01:23:01.600Z,90844.03
2023-03-10T01:25:28.502Z,90843.34
2023-03-10T01:27:55.162Z,90848.63
2023-03-10T01:30:21.877Z,90839.84
2023-03-10T01:32:48.620Z,90842.03
2023-03-10T01:35:15.368Z,90830.09
2023-03-10T01:37:44.355Z,90832.97
2023-03-10T01:40:16.403Z,90837.38
2023-03-10T01:42:43.608Z,90827.25
2023-03-10T01:45:30.235Z,90834.09
2023-03-10T01:47:56.934Z,90842.06
2023-03-10T01:50:23.626Z,90843.81
2023-03-10T01:52:56.557Z,90851.34
2023-03-10T01:55:29.550Z,90850.91
2023-03-10T01:57:56.916Z,90852.81
2023-03-10T02:00:28.048Z,90848.88
2023-03-10T02:03:18.546Z,90854.88
2023-03-10T02:05:50.549Z,90861.84
2023-03-10T02:08:17.308Z,90861.97
2023-03-10T02:10:44.562Z,90854.75
2023-03-10T02:13:11.188Z,90848.94
2023-03-10T02:15:37.830Z,90859.97
2023-03-10T02:18:04.630Z,90857.31
2023-03-10T02:20:38.433Z,90856.53
2023-03-10T02:23:05.104Z,90852.56
2023-03-10T02:25:52.361Z,90864.59
2023-03-10T02:28:19.078Z,90862.47
2023-03-10T02:30:47.365Z,90868.66
2023-03-10T02:33:24.869Z,90860.31
2023-03-10T02:35:51.558Z,90856.13
2023-03-10T02:38:18.239Z,90848.56
2023-03-10T02:40:45.661Z,90852.72
2023-03-10T02:43:28.005Z,90843.00
2023-03-10T02:46:00.084Z,90848.94
2023-03-10T02:48:29.539Z,90844.53
2023-03-10T02:50:56.813Z,90837.66
2023-03-10T02:53:25.661Z,90841.81
2023-03-10T02:55:52.658Z,90838.41
2023-03-10T02:58:19.831Z,90840.28
2023-03-10T03:00:47.916Z,90842.22
2023-03-10T03:03:15.557Z,90838.75
2023-03-10T03:05:42.348Z,90828.88
2023-03-10T03:08:09.094Z,90822.38
2023-03-10T03:10:36.086Z,90830.81
2023-03-10T03:13:02.785Z,90828.06
2023-03-10T03:15:29.486Z,90828.88
2023-03-10T03:17:58.608Z,90835.16
2023-03-10T03:20:28.626Z,90834.59
2023-03-10T03:22:55.318Z,90836.13
2023-03-10T03:25:22.278Z,90838.41
2023-03-10T03:27:50.082Z,90829.09
2023-03-10T03:30:22.323Z,90832.69
2023-03-10T03:32:49.118Z,90832.44
2023-03-10T03:35:18.172Z,90843.09
2023-03-10T03:37:44.858Z,90845.81
2023-03-10T03:40:13.039Z,90844.69
2023-03-10T03:42:43.699Z,90835.63
2023-03-10T03:45:11.178Z,90833.97
2023-03-10T03:47:37.819Z,90839.00
2023-03-10T03:50:05.203Z,90836.84
2023-03-10T03:52:32.395Z,90834.09
2023-03-10T03:54:59.088Z,90837.22
2023-03-10T03:57:26.046Z,90841.72
2023-03-10T03:59:53.168Z,90843.59
2023-03-10T04:02:20.000Z,90843.16
2023-03-10T04:04:46.863Z,90839.25
2023-03-10T04:07:13.614Z,90839.31
2023-03-10T04:09:40.894Z,90837.53
2023-03-10T04:12:08.304Z,90843.84
2023-03-10T04:14:35.130Z,90838.84
2023-03-10T04:17:01.760Z,90849.84
2023-03-10T04:19:28.333Z,90847.94
2023-03-10T04:21:55.031Z,90838.84
2023-03-10T04:24:21.695Z,90835.56
2023-03-10T04:26:48.365Z,90840.16
2023-03-10T04:29:14.998Z,90835.97
2023-03-10T04:31:41.700Z,90830.16
2023-03-10T04:34:08.392Z,90828.75
2023-03-10T04:36:35.030Z,90826.50
2023-03-10T04:39:01.742Z,90819.56
2023-03-10T04:41:28.334Z,90817.94
2023-03-10T04:43:55.290Z,90815.00
2023-03-10T04:46:22.039Z,90812.00
2023-03-10T04:48:48.730Z,90815.59
2023-03-10T04:51:15.411Z,90818.28
2023-03-10T04:53:42.099Z,90805.53
2023-03-10T04:56:08.876Z,90812.44
2023-03-10T04:58:35.642Z,90802.97
2023-03-10T05:01:03.826Z,90803.19
2023-03-10T05:03:30.595Z,90803.81
2023-03-10T05:05:57.461Z,90804.13
2023-03-10T05:08:24.219Z,90808.63
2023-03-10T05:10:51.041Z,90799.50
2023-03-10T05:13:17.817Z,90801.38
2023-03-10T05:15:44.406Z,90796.41
2023-03-10T05:18:11.811Z,90788.34
2023-03-10T05:20:38.668Z,90786.53
2023-03-10T05:23:05.314Z,90772.94
2023-03-10T05:25:32.174Z,90771.75
2023-03-10T05:27:58.835Z,90769.47
2023-03-10T05:30:25.461Z,90765.16
2023-03-10T05:32:52.201Z,90764.38
2023-03-10T05:35:19.019Z,90762.59
2023-03-10T05:37:45.743Z,90767.34
2023-03-10T05:40:15.138Z,90764.50
2023-03-10T05:42:41.810Z,90768.50
2023-03-10T05:45:09.178Z,90758.06
2023-03-10T05:47:35.859Z,90764.16
2023-03-10T05:50:02.562Z,90762.44
2023-03-10T05:52:29.222Z,90767.91
2023-03-10T05:54:55.959Z,90771.38
2023-03-10T05:57:22.547Z,90767.47
2023-03-10T05:59:49.169Z,90772.38
2023-03-10T06:02:15.850Z,90761.22
2023-03-10T06:04:42.530Z,90766.06
2023-03-10T06:07:09.390Z,90765.25
2023-03-10T06:09:36.093Z,90761.59
2023-03-10T06:12:02.886Z,90761.63
2023-03-10T06:14:29.489Z,90756.72
2023-03-10T06:16:57.145Z,90750.34
2023-03-10T06:19:24.302Z,90746.31
2023-03-10T06:21:50.987Z,90755.75
2023-03-10T06:24:17.739Z,90759.59
2023-03-10T06:26:44.441Z,90758.69
2023-03-10T06:29:11.115Z,90761.31
2023-03-10T06:31:37.775Z,90766.84
2023-03-10T06:34:04.794Z,90767.28
2023-03-10T06:36:32.551Z,90771.63
2023-03-10T06:38:59.256Z,90774.38
2023-03-10T06:41:25.920Z,90772.41
2023-03-10T06:43:52.572Z,90766.72
2023-03-10T06:46:19.365Z,90768.56
2023-03-10T06:48:46.162Z,90775.63
2023-03-10T06:51:17.829Z,90772.41
2023-03-10T06:53:44.459Z,90774.69
2023-03-10T06:56:15.871Z,90777.94
2023-03-10T06:58:42.619Z,90770.13
2023-03-10T07:01:09.914Z,90772.75
2023-03-10T07:03:36.800Z,90772.03
2023-03-10T07:06:04.960Z,90767.16
2023-03-10T07:08:31.726Z,90772.13
2023-03-10T07:10:58.356Z,90774.66
2023-03-10T07:13:25.015Z,90768.13
2023-03-10T07:15:51.641Z,90775.88
2023-03-10T07:18:18.336Z,90777.59
2023-03-10T07:20:45.181Z,90769.19
2023-03-10T07:23:12.321Z,90745.31
2023-03-10T07:25:39.045Z,90743.09
2023-03-10T07:28:06.122Z,90746.34
2023-03-10T07:30:33.231Z,90746.06
2023-03-10T07:33:00.000Z,90747.06
2023-03-10T07:35:26.613Z,90739.53
2023-03-10T07:37:54.445Z,90748.44
2023-03-10T07:40:25.198Z,90742.56
2023-03-10T07:42:54.654Z,90747.41
2023-03-10T07:45:25.258Z,90740.59
2023-03-10T07:47:52.318Z,90726.06
2023-03-10T07:50:19.441Z,90729.16
2023-03-10T07:52:46.645Z,90725.50
2023-03-10T07:55:13.323Z,90724.06
2023-03-10T07:57:39.982Z,90718.72
2023-03-10T08:00:07.370Z,90724.56
2023-03-10T08:02:34.081Z,90710.44
2023-03-10T08:05:00.832Z,90701.56
2023-03-10T08:07:27.734Z,90699.06
2023-03-10T08:09:54.516Z,90696.84
2023-03-10T08:12:21.558Z,90700.78
2023-03-10T08:14:48.540Z,90682.09
2023-03-10T08:17:15.330Z,90681.34
2023-03-10T08:19:42.412Z,90678.38
2023-03-10T08:22:10.305Z,90669.41
2023-03-10T08:24:38.006Z,90674.09
2023-03-10T08:27:05.430Z,90668.16
2023-03-10T08:29:32.123Z,90671.56
2023-03-10T08:31:58.829Z,90670.44
2023-03-10T08:34:25.550Z,90648.72
2023-03-10T08:36:52.259Z,90653.75
2023-03-10T08:39:19.019Z,90657.03
2023-03-10T08:41:49.067Z,90654.09
2023-03-10T08:44:17.959Z,90654.03
2023-03-10T08:46:46.875Z,90648.97
2023-03-10T08:49:15.020Z,90631.63
2023-03-10T08:51:41.865Z,90631.91
2023-03-10T08:54:09.054Z,90628.25
2023-03-10T08:56:35.869Z,90628.91
2023-03-10T08:59:02.585Z,90630.44
2023-03-10T09:01:31.367Z,90624.19
2023-03-10T09:03:58.364Z,90615.28
2023-03-10T09:06:25.367Z,90609.09
2023-03-10T09:08:52.398Z,90592.22
2023-03-10T09:11:30.002Z,90595.91
2023-03-10T09:13:56.697Z,90596.31
2023-03-10T09:16:23.452Z,90591.38
2023-03-10T09:18:50.181Z,90588.34
2023-03-10T09:21:17.772Z,90590.72
2023-03-10T09:23:46.419Z,90596.59
2023-03-10T09:26:13.167Z,90587.63
2023-03-10T09:28:39.887Z,90586.28
2023-03-10T09:31:07.268Z,90570.47
2023-03-10T09:33:34.065Z,90575.81
2023-03-10T09:36:07.486Z,90577.53
2023-03-10T09:38:35.280Z,90582.59
2023-03-10T09:41:01.934Z,90581.53
2023-03-10T09:43:28.588Z,90574.13
2023-03-10T09:46:15.284Z,90572.63
2023-03-10T09:48:45.682Z,90573.47
2023-03-10T09:51:15.950Z,90565.38
2023-03-10T09:54:00.586Z,90560.81
2023-03-10T09:56:30.004Z,90557.97
2023-03-10T09:59:11.260Z,90549.31
2023-03-10T10:01:37.962Z,90548.00
2023-03-10T10:04:15.988Z,90548.69
2023-03-10T10:06:46.826Z,90539.38
2023-03-10T10:09:42.279Z,90539.66
2023-03-10T10:12:13.099Z,90539.97
2023-03-10T10:14:42.577Z,90532.88
2023-03-10T10:17:56.457Z,90540.34
2023-03-10T10:20:54.091Z,90533.81
2023-03-10T10:23:41.068Z,90532.09
2023-03-10T10:26:15.885Z,90525.59
2023-03-10T10:29:07.028Z,90533.50
2023-03-10T10:31:35.950Z,90526.78
2023-03-10T10:34:04.006Z,90521.94
2023-03-10T10:36:40.029Z,90515.91
2023-03-10T10:39:22.589Z,90519.16
2023-03-10T10:41:49.226Z,90516.72
2023-03-10T10:44:16.646Z,90516.75
2023-03-10T10:46:56.526Z,90514.06
2023-03-10T10:49:28.058Z,90521.00
2023-03-10T10:51:58.967Z,90522.09
2023-03-10T10:54:31.017Z,90516.78
2023-03-10T10:56:59.316Z,90516.91
2023-03-10T10:59:32.602Z,90520.66
2023-03-10T11:02:04.213Z,90509.22
2023-03-10T11:04:44.960Z,90521.41
2023-03-10T11:07:17.753Z,90512.88
2023-03-10T11:09:44.444Z,90504.72
2023-03-10T11:12:22.293Z,90505.72
2023-03-10T11:14:57.987Z,90492.88
2023-03-10T11:17:35.438Z,90493.00
2023-03-10T11:20:29.876Z,90483.84
2023-03-10T11:23:17.783Z,90481.97
2023-03-10T11:25:51.960Z,90476.13
2023-03-10T11:28:42.843Z,90474.59
2023-03-10T11:31:53.972Z,90465.44
2023-03-10T11:34:31.103Z,90460.16
2023-03-10T11:37:24.559Z,90459.22
2023-03-10T11:40:08.820Z,90460.59
2023-03-10T11:42:45.608Z,90452.44
2023-03-10T11:45:27.934Z,90449.47
2023-03-10T11:48:20.502Z,90455.13
2023-03-10T11:50:53.615Z,90454.91
2023-03-10T11:53:44.171Z,90453.78
2023-03-10T11:56:15.024Z,90445.88
2023-03-10T11:58:45.742Z,90446.84
2023-03-10T12:01:15.336Z,90440.97
2023-03-10T12:04:00.886Z,90429.88
2023-03-10T12:06:33.172Z,90424.56
2023-03-10T12:08:59.917Z,90426.47
2023-03-10T12:11:27.199Z,90412.38
2023-03-10T12:13:58.119Z,90403.25
2023-03-10T12:16:27.408Z,90402.75
2023-03-10T12:18:54.344Z,90413.19
2023-03-10T12:21:28.472Z,90401.44
2023-03-10T12:23:56.643Z,90395.22
2023-03-10T12:26:38.491Z,90391.50
2023-03-10T12:29:20.687Z,90387.09
2023-03-10T12:31:49.068Z,90377.16
2023-03-10T12:34:28.062Z,90375.41
2023-03-10T12:37:08.509Z,90371.31
2023-03-10T12:39:44.281Z,90364.84
2023-03-10T12:42:30.610Z,90366.78
2023-03-10T12:45:21.306Z,90363.22
2023-03-10T12:47:53.047Z,90358.97
2023-03-10T12:50:43.995Z,90358.84
2023-03-10T12:53:32.117Z,90360.25
2023-03-10T12:56:26.033Z,90341.97
2023-03-10T12:58:57.714Z,90338.47
2023-03-10T13:01:26.045Z,90349.41
2023-03-10T13:03:53.428Z,90343.19
2023-03-10T13:06:38.932Z,90324.50
2023-03-10T13:09:31.954Z,90352.69
2023-03-10T13:12:12.590Z,90355.13
2023-03-10T13:14:40.251Z,90326.38
2023-03-10T13:17:09.604Z,90333.13
2023-03-10T13:19:37.149Z,90325.97
2023-03-10T13:22:04.949Z,90325.03
2023-03-10T13:24:36.324Z,90309.53
2023-03-10T13:27:15.878Z,90304.09
2023-03-10T13:30:02.559Z,90308.88
2023-03-10T13:32:29.763Z,90283.91
2023-03-10T13:34:57.496Z,90298.00
2023-03-10T13:37:24.387Z,90292.53
2023-03-10T13:39:51.115Z,90284.03
2023-03-10T13:42:37.129Z,90274.38
2023-03-10T13:45:15.195Z,90262.59
2023-03-10T13:47:41.882Z,90259.00
2023-03-10T13:50:14.666Z,90248.03
2023-03-10T13:52:51.179Z,90247.75
2023-03-10T13:55:17.894Z,90245.13
2023-03-10T13:57:45.109Z,90241.38
2023-03-10T14:00:13.805Z,90233.59
2023-03-10T14:02:40.476Z,90234.56
2023-03-10T14:05:08.348Z,90233.16
2023-03-10T14:07:36.405Z,90230.59
2023-03-10T14:10:10.281Z,90227.00
2023-03-10T14:12:40.699Z,90226.06
2023-03-10T14:15:11.075Z,90215.81
2023-03-10T14:17:38.700Z,90224.44
2023-03-10T14:20:06.456Z,90212.16
2023-03-10T14:22:37.968Z,90206.28
2023-03-10T14:25:15.679Z,90198.28
2023-03-10T14:27:44.149Z,90205.34
2023-03-10T14:30:17.815Z,90194.91
2023-03-10T14:32:44.502Z,90209.66
2023-03-10T14:35:14.719Z,90200.19
2023-03-10T14:37:41.352Z,90198.63
2023-03-10T14:40:08.900Z,90190.41
2023-03-10T14:42:35.656Z,90189.19
2023-03-10T14:45:07.951Z,90187.72
2023-03-10T14:47:34.722Z,90194.16
2023-03-10T14:50:01.765Z,90194.56
2023-03-10T14:52:28.464Z,90179.22
2023-03-10T14:54:55.046Z,90187.97
2023-03-10T14:57:21.695Z,90177.00
2023-03-10T14:59:48.991Z,90174.06
2023-03-10T15:02:23.488Z,90168.75
2023-03-10T15:04:50.370Z,90163.00
2023-03-10T15:07:17.743Z,90167.81
2023-03-10T15:09:44.936Z,90170.34
2023-03-10T15:12:14.132Z,90169.88
2023-03-10T15:14:41.449Z,90159.97
2023-03-10T15:17:09.518Z,90156.84
2023-03-10T15:19:36.183Z,90153.38
2023-03-10T15:22:02.923Z,90141.81
2023-03-10T15:24:29.622Z,90143.91
2023-03-10T15:26:56.343Z,90152.16
2023-03-10T15:29:23.583Z,90167.03
2023-03-10T15:31:50.360Z,90166.13
2023-03-10T15:34:18.824Z,90161.44
2023-03-10T15:36:46.225Z,90175.59
2023-03-10T15:39:21.993Z,90171.78
2023-03-10T15:41:55.846Z,90173.28
2023-03-10T15:44:22.614Z,90171.66
2023-03-10T15:46:52.674Z,90179.56
2023-03-10T15:49:19.330Z,90182.03
2023-03-10T15:51:45.981Z,90188.72
2023-03-10T15:54:12.877Z,90174.69
2023-03-10T15:56:39.933Z,90181.59
2023-03-10T15:59:08.184Z,90162.72
2023-03-10T16:01:34.965Z,90177.59
2023-03-10T16:04:01.942Z,90162.00
2023-03-10T16:06:28.859Z,90160.53
2023-03-10T16:08:56.293Z,90164.78
2023-03-10T16:11:23.126Z,90165.16
2023-03-10T16:13:49.856Z,90156.22
2023-03-10T16:16:20.241Z,90155.91
2023-03-10T16:18:47.214Z,90163.63
2023-03-10T16:21:16.204Z,90160.13
2023-03-10T16:23:44.458Z,90148.81
2023-03-10T16:26:19.205Z,90150.91
2023-03-10T16:28:47.432Z,90151.59
2023-03-10T16:31:15.088Z,90150.84
2023-03-10T16:33:42.070Z,90154.19
2023-03-10T16:36:11.354Z,90150.72
2023-03-10T16:38:38.041Z,90142.97
2023-03-10T16:41:04.847Z,90144.00
2023-03-10T16:43:32.409Z,90136.72
2023-03-10T16:46:17.296Z,90127.03
2023-03-10T16:48:45.097Z,90129.72
2023-03-10T16:51:28.713Z,90138.53
2023-03-10T16:53:59.628Z,90147.47
2023-03-10T16:56:27.658Z,90153.88
2023-03-10T16:58:54.375Z,90152.91
2023-03-10T17:01:21.182Z,90147.53
2023-03-10T17:03:48.848Z,90147.75
2023-03-10T17:06:18.001Z,90154.03
2023-03-10T17:08:44.776Z,90156.75
2023-03-10T17:11:38.438Z,90149.97
2023-03-10T17:14:06.917Z,90143.44
2023-03-10T17:16:34.109Z,90142.97
2023-03-10T17:19:02.421Z,90143.44
2023-03-10T17:21:33.245Z,90143.66
2023-03-10T17:23:59.956Z,90148.78
2023-03-10T17:26:26.683Z,90145.16
2023-03-10T17:28:53.406Z,90149.03
2023-03-10T17:31:23.586Z,90162.47
2023-03-10T17:33:50.797Z,90167.59
2023-03-10T17:36:17.455Z,90183.50
2023-03-10T17:38:44.257Z,90196.28
2023-03-10T17:41:12.508Z,90203.47
2023-03-10T17:43:39.182Z,90190.69
2023-03-10T17:46:08.168Z,90187.47
2023-03-10T17:48:35.651Z,90188.69
2023-03-10T17:51:02.506Z,90197.13
2023-03-10T17:53:29.971Z,90207.44
2023-03-10T17:55:56.898Z,90197.78
2023-03-10T17:58:23.771Z,90195.19
2023-03-10T18:00:50.415Z,90185.13
2023-03-10T18:03:17.291Z,90179.88
2023-03-10T18:05:44.236Z,90171.22
2023-03-10T18:08:11.506Z,90171.88
2023-03-10T18:10:38.592Z,90179.00
2023-03-10T18:13:07.270Z,90167.84
2023-03-10T18:15:33.921Z,90168.03
2023-03-10T18:18:00.628Z,90177.00
2023-03-10T18:20:27.327Z,90185.44
2023-03-10T18:22:54.052Z,90186.09
2023-03-10T18:25:21.483Z,90186.97
2023-03-10T18:27:48.868Z,90169.91
2023-03-10T18:30:15.825Z,90170.88
2023-03-10T18:32:43.297Z,90160.53
2023-03-10T18:35:11.422Z,90159.13
2023-03-10T18:37:38.065Z,90149.00
2023-03-10T18:40:06.018Z,90138.25
2023-03-10T18:42:33.220Z,90134.88
2023-03-10T18:44:59.891Z,90126.41
2023-03-10T18:47:26.489Z,90114.28
2023-03-10T18:49:53.105Z,90102.59
2023-03-10T18:52:19.742Z,90109.25
2023-03-10T18:54:46.875Z,90096.81
2023-03-10T18:57:14.231Z,90095.72
2023-03-10T18:59:41.017Z,90090.13
2023-03-10T19:02:10.283Z,90086.50
2023-03-10T19:04:37.129Z,90100.91
2023-03-10T19:07:07.166Z,90096.97
2023-03-10T19:09:33.778Z,90087.25
2023-03-10T19:12:00.476Z,90087.25
2023-03-10T19:14:27.205Z,90092.31
2023-03-10T19:16:53.977Z,90087.75
2023-03-10T19:19:20.616Z,90085.91
2023-03-10T19:21:47.347Z,90084.88
2023-03-10T19:24:14.077Z,90086.88
2023-03-10T19:26:40.829Z,90081.78
2023-03-10T19:29:07.545Z,90072.81
2023-03-10T19:31:34.234Z,90072.06
2023-03-10T19:34:00.963Z,90057.31
2023-03-10T19:36:29.486Z,90031.22
2023-03-10T19:38:56.224Z,90059.09
2023-03-10T19:41:23.489Z,90050.66
2023-03-10T19:43:51.217Z,90047.53
2023-03-10T19:46:18.056Z,90038.22
2023-03-10T19:48:45.992Z,90034.84
2023-03-10T19:51:21.557Z,90029.69
2023-03-10T19:53:48.326Z,90026.06
2023-03-10T19:56:16.356Z,90026.66
2023-03-10T19:58:43.078Z,90029.88
2023-03-10T20:01:16.500Z,90034.78
2023-03-10T20:03:43.846Z,90035.03
2023-03-10T20:06:10.646Z,90028.31
2023-03-10T20:08:38.172Z,90032.22
2023-03-10T20:11:05.278Z,90025.69
2023-03-10T20:13:32.446Z,90032.44
2023-03-10T20:15:59.279Z,90027.63
2023-03-10T20:18:26.020Z,90028.88
2023-03-10T20:20:52.801Z,90031.56
2023-03-10T20:23:19.458Z,90031.25
2023-03-10T20:25:46.434Z,90023.28
2023-03-10T20:28:13.466Z,90022.53
2023-03-10T20:30:41.215Z,90042.94
2023-03-10T20:33:08.260Z,90044.28
2023-03-10T20:35:34.994Z,90041.75
2023-03-10T20:38:02.210Z,90018.84
2023-03-10T20:40:29.285Z,89985.59
2023-03-10T20:42:56.784Z,89986.03
2023-03-10T20:45:23.623Z,89975.63
2023-03-10T20:47:50.503Z,89985.91
2023-03-10T20:50:17.374Z,89990.22
2023-03-10T20:52:44.311Z,89991.13
2023-03-10T20:55:19.772Z,89997.66
2023-03-10T20:57:50.163Z,89993.22
2023-03-10T21:00:17.714Z,89991.06
2023-03-10T21:02:45.330Z,89997.66
2023-03-10T21:05:12.114Z,89998.47
2023-03-10T21:07:38.759Z,89975.00
2023-03-10T21:10:06.464Z,89979.66
2023-03-10T21:12:33.162Z,89986.50
2023-03-10T21:14:59.946Z,89967.84
2023-03-10T21:17:27.860Z,89974.00
2023-03-10T21:19:54.901Z,89963.03
2023-03-10T21:22:21.875Z,89954.16
2023-03-10T21:24:49.268Z,89956.09
2023-03-10T21:27:16.272Z,89956.22
2023-03-10T21:29:43.144Z,89959.19
2023-03-10T21:32:09.822Z,89960.59
2023-03-10T21:34:36.567Z,89944.13
2023-03-10T21:37:03.332Z,89936.28
2023-03-10T21:39:29.962Z,89937.84
2023-03-10T21:41:56.761Z,89944.81
2023-03-10T21:44:23.346Z,89930.16
2023-03-10T21:46:50.595Z,89929.84
2023-03-10T21:49:17.365Z,89920.28
2023-03-10T21:51:43.976Z,89910.97
2023-03-10T21:54:10.682Z,89897.84
2023-03-10T21:56:37.428Z,89905.47
2023-03-10T21:59:04.085Z,89888.44
2023-03-10T22:01:30.744Z,89896.59
2023-03-10T22:03:57.370Z,89905.69
2023-03-10T22:06:24.150Z,89887.47
2023-03-10T22:08:50.886Z,89884.38
2023-03-10T22:11:17.576Z,89880.31
2023-03-10T22:13:44.241Z,89884.38
2023-03-10T22:16:13.997Z,89889.84
2023-03-10T22:18:40.708Z,89873.53
2023-03-10T22:21:07.311Z,89883.47
2023-03-10T22:23:33.905Z,89898.94
2023-03-10T22:26:00.700Z,89892.69
2023-03-10T22:28:27.394Z,89890.06
2023-03-10T22:30:54.139Z,89885.19
2023-03-10T22:33:20.923Z,89897.00
2023-03-10T22:35:52.062Z,89894.97
2023-03-10T22:38:21.863Z,89887.66
2023-03-10T22:40:48.779Z,89892.34
2023-03-10T22:43:15.542Z,89895.50
2023-03-10T22:45:42.271Z,89894.03
2023-03-10T22:48:09.007Z,89887.31
2023-03-10T22:50:40.912Z,89878.72
2023-03-10T22:53:11.978Z,89861.09
2023-03-10T22:55:38.582Z,89857.56
2023-03-10T22:58:06.180Z,89855.97
2023-03-10T23:00:33.856Z,89856.13
2023-03-10T23:03:00.615Z,89857.72
2023-03-10T23:05:27.612Z,89844.28
2023-03-10T23:07:54.425Z,89843.28
2023-03-10T23:10:31.829Z,89837.38
2023-03-10T23:13:00.364Z,89836.22
2023-03-10T23:15:29.391Z,89839.94
2023-03-10T23:17:56.432Z,89836.78
2023-03-10T23:20:27.106Z,89833.66
2023-03-10T23:22:54.226Z,89823.19
2023-03-10T23:25:32.106Z,89825.56
2023-03-10T23:27:58.782Z,89820.38
2023-03-10T23:30:25.550Z,89811.53
2023-03-10T23:32:52.459Z,89810.28
2023-03-10T23:35:21.208Z,89798.81
2023-03-10T23:37:47.905Z,89798.28
2023-03-10T23:40:15.918Z,89801.97
2023-03-10T23:42:42.706Z,89811.63
2023-03-10T23:45:11.901Z,89806.22
2023-03-10T23:47:38.572Z,89805.22
2023-03-10T23:50:06.581Z,89798.56
2023-03-10T23:52:33.169Z,89797.84
2023-03-10T23:54:59.941Z,89803.28
2023-03-10T23:57:26.557Z,89806.69
2023-03-10T23:59:53.214Z,89802.13
